Time;durP1;ratioP1;P1;durP2;ratioP2;P2;SDS_P1;SDS_P2;PMS_P1;PMS_P2;Temp;Humidity;BMP_temperature;BMP_pressure;BME280_temperature;BME280_humidity;BME280_pressure;Samples;Min_cycle;Max_cycle;Signal;HPM_P1;HPM_P2
2022/11/14 00:01:23;;;;;;;1.50;1.30;;;;;;;9.23;84.45;96455.38;5114918;28;20486;-53
2022/11/14 00:03:51;;;;;;;0.77;0.77;;;;;;;9.08;85.13;96460.31;5113871;28;20427;-52
2022/11/14 00:06:20;;;;;;;1.00;1.00;;;;;;;9.05;86.02;96457.31;5114391;28;20438;-52
2022/11/14 00:08:50;;;;;;;1.60;1.20;;;;;;;8.77;87.38;96455.38;5114713;28;20416;-53
2022/11/14 00:11:19;;;;;;;1.57;1.47;;;;;;;8.98;86.04;96465.38;5114773;28;20745;-53
2022/11/14 00:13:47;;;;;;;0.70;0.57;;;;;;;9.21;83.66;96454.00;5114710;28;20424;-53
2022/11/14 00:16:15;;;;;;;0.70;0.70;;;;;;;9.16;82.96;96448.59;5114645;28;20919;-53
2022/11/14 00:18:43;;;;;;;1.13;1.03;;;;;;;8.59;84.16;96458.13;5114722;28;20431;-53
2022/11/14 00:21:12;;;;;;;0.90;0.50;;;;;;;8.69;86.25;96448.59;5113684;28;20435;-53
2022/11/14 00:23:40;;;;;;;1.53;1.43;;;;;;;9.17;84.19;96452.81;5114476;28;20908;-52
2022/11/14 00:26:09;;;;;;;0.50;0.50;;;;;;;9.20;83.98;96449.72;5114085;28;20492;-52
2022/11/14 00:28:38;;;;;;;0.40;0.30;;;;;;;9.36;81.95;96454.31;5114467;28;20839;-53
2022/11/14 00:31:06;;;;;;;0.30;0.27;;;;;;;9.41;81.01;96446.47;5114126;28;20433;-53
2022/11/14 00:33:35;;;;;;;0.40;0.30;;;;;;;9.39;80.15;96446.69;5113990;28;20424;-52
2022/11/14 00:36:03;;;;;;;0.40;0.40;;;;;;;9.37;80.52;96445.31;5114304;28;20432;-53
2022/11/14 00:38:31;;;;;;;0.40;0.30;;;;;;;9.17;80.90;96431.66;5113909;28;20440;-53
2022/11/14 00:41:02;;;;;;;0.40;0.30;;;;;;;9.44;79.92;96452.09;5113963;28;20431;-53
2022/11/14 00:43:31;;;;;;;1.70;0.40;;;;;;;9.32;80.32;96442.56;5114092;28;20777;-52
2022/11/14 00:46:00;;;;;;;1.27;0.50;;;;;;;9.18;80.29;96446.50;5113978;28;20850;-52
2022/11/14 00:48:28;;;;;;;0.73;0.73;;;;;;;9.11;80.86;96443.97;5113891;28;20416;-52
2022/11/14 00:50:57;;;;;;;0.37;0.30;;;;;;;9.26;80.19;96431.06;5113344;28;20493;-53
2022/11/14 00:53:25;;;;;;;0.37;0.27;;;;;;;8.76;82.23;96444.00;5112620;28;20868;-52
2022/11/14 00:55:53;;;;;;;0.80;0.80;;;;;;;8.11;88.58;96452.97;5113817;28;20438;-52
2022/11/14 00:58:21;;;;;;;4.27;1.03;;;;;;;8.13;90.37;96442.97;5113600;28;20428;-52
2022/11/14 01:00:51;;;;;;;0.50;0.50;;;;;;;8.58;87.32;96441.47;5112564;28;20435;-53
2022/11/14 01:03:20;;;;;;;0.67;0.60;;;;;;;8.55;86.61;96439.28;5113745;28;20436;-53
2022/11/14 01:05:50;;;;;;;0.50;0.50;;;;;;;8.59;84.86;96408.72;5113635;28;20498;-53
2022/11/14 01:08:19;;;;;;;0.70;0.70;;;;;;;8.88;83.57;96436.88;5113408;28;20958;-52
2022/11/14 01:10:49;;;;;;;0.83;0.83;;;;;;;8.90;83.01;96432.16;5113218;28;20869;-53
2022/11/14 01:13:18;;;;;;;0.70;0.70;;;;;;;8.97;82.59;96424.13;5113443;28;20788;-53
2022/11/14 01:15:49;;;;;;;0.70;0.70;;;;;;;9.07;82.28;96429.63;5112484;28;20558;-53
2022/11/14 01:18:20;;;;;;;0.30;0.20;;;;;;;9.15;82.14;96428.47;5113391;28;20911;-53
2022/11/14 01:20:49;;;;;;;0.40;0.30;;;;;;;8.93;80.71;96425.59;5113376;28;20451;-53
2022/11/14 01:23:17;;;;;;;1.13;0.87;;;;;;;8.67;81.76;96432.19;5112995;28;20432;-53
2022/11/14 01:25:46;;;;;;;0.90;0.37;;;;;;;8.53;83.08;96428.13;5112696;28;20460;-53
2022/11/14 01:28:17;;;;;;;0.70;0.67;;;;;;;7.97;87.80;96422.50;5112425;28;20427;-53
2022/11/14 01:30:45;;;;;;;0.80;0.70;;;;;;;8.26;87.87;96419.84;5112144;28;20652;-53
2022/11/14 01:33:14;;;;;;;0.60;0.60;;;;;;;7.75;94.15;96424.03;5112917;28;20427;-52
2022/11/14 01:35:43;;;;;;;1.47;1.47;;;;;;;7.46;97.78;96421.16;5112869;28;20939;-53
2022/11/14 01:38:14;;;;;;;1.20;1.20;;;;;;;7.83;94.76;96407.88;5112928;28;20424;-53
2022/11/14 01:40:43;;;;;;;2.30;2.20;;;;;;;8.06;92.18;96413.22;5112805;28;20489;-53
2022/11/14 01:43:31;;;;;;;0.93;0.93;;;;;;;8.17;90.89;96415.09;5112762;28;20424;-53
2022/11/14 01:46:02;;;;;;;0.43;0.43;;;;;;;8.38;88.46;96405.81;5112553;28;20846;-53
2022/11/14 01:48:35;;;;;;;1.63;1.57;;;;;;;8.29;88.18;96384.25;5112949;28;20846;-53
2022/11/14 01:51:16;;;;;;;1.83;1.73;;;;;;;8.43;86.29;96398.84;5111978;28;20420;-53
2022/11/14 01:53:46;;;;;;;1.17;1.07;;;;;;;8.49;84.40;96408.50;5112789;28;20427;-53
2022/11/14 01:56:19;;;;;;;0.90;0.60;;;;;;;8.44;83.94;96397.81;5112357;28;20432;-53
2022/11/14 01:58:52;;;;;;;1.00;0.63;;;;;;;8.37;83.53;96396.31;5112464;28;20445;-53
2022/11/14 02:01:20;;;;;;;0.70;0.70;;;;;;;8.08;86.12;96392.69;5112701;28;20780;-53
2022/11/14 02:03:53;;;;;;;0.83;0.83;;;;;;;8.17;85.97;96394.75;5112138;28;20807;-53
2022/11/14 02:06:25;;;;;;;0.83;0.83;;;;;;;8.00;86.73;96391.16;5112189;28;20487;-52
2022/11/14 02:08:54;;;;;;;0.73;0.73;;;;;;;7.98;86.83;96393.25;5112708;28;20450;-52
2022/11/14 02:11:23;;;;;;;0.40;0.30;;;;;;;8.02;86.56;96386.47;5112190;28;20432;-52
2022/11/14 02:13:51;;;;;;;0.63;0.57;;;;;;;8.11;86.15;96387.75;5112154;28;20427;-53
2022/11/14 02:16:20;;;;;;;1.47;1.37;;;;;;;7.90;86.90;96390.09;5112177;28;20439;-53
2022/11/14 02:18:48;;;;;;;0.40;0.40;;;;;;;7.73;88.04;96389.16;5112096;28;20424;-53
2022/11/14 02:21:18;;;;;;;0.50;0.50;;;;;;;7.53;90.60;96381.50;5112116;28;20430;-53
2022/11/14 02:23:46;;;;;;;0.50;0.50;;;;;;;7.82;88.99;96377.25;5112409;28;20431;-53
2022/11/14 02:26:18;;;;;;;0.87;0.87;;;;;;;7.94;87.08;96378.09;5111585;28;20525;-53
2022/11/14 02:28:46;;;;;;;6.23;1.77;;;;;;;7.98;86.53;96381.88;5112129;28;20420;-53
2022/11/14 02:31:15;;;;;;;0.57;0.40;;;;;;;8.09;84.85;96374.00;5112103;28;20431;-53
2022/11/14 02:33:44;;;;;;;0.40;0.33;;;;;;;8.09;83.80;96378.47;5112325;28;20520;-53
2022/11/14 02:36:12;;;;;;;0.40;0.40;;;;;;;8.11;83.63;96376.38;5112045;28;20416;-53
2022/11/14 02:38:41;;;;;;;0.67;0.50;;;;;;;7.96;83.70;96376.00;5112045;28;20503;-53
2022/11/14 02:41:10;;;;;;;0.90;0.90;;;;;;;7.79;85.74;96380.34;5111994;28;20430;-53
2022/11/14 02:43:38;;;;;;;2.50;0.93;;;;;;;7.53;87.07;96377.06;5112259;28;20431;-53
2022/11/14 02:46:06;;;;;;;1.47;1.43;;;;;;;7.53;87.85;96378.88;5111890;28;21033;-53
2022/11/14 02:48:34;;;;;;;1.60;1.50;;;;;;;7.55;87.37;96377.63;5112109;28;20440;-53
2022/11/14 02:51:03;;;;;;;0.53;0.40;;;;;;;7.62;86.43;96377.53;5111980;28;20428;-53
2022/11/14 02:53:31;;;;;;;5.30;1.83;;;;;;;6.51;94.76;96374.41;5111245;28;20432;-53
2022/11/14 02:56:01;;;;;;;2.63;1.53;;;;;;;5.84;100.00;96375.16;5111369;28;20881;-54
2022/11/14 02:58:29;;;;;;;1.93;1.50;;;;;;;5.55;100.00;96370.47;5111710;28;20432;-54
2022/11/14 03:00:58;;;;;;;1.23;0.40;;;;;;;5.89;100.00;96385.06;5111851;28;20427;-53
2022/11/14 03:03:46;;;;;;;0.67;0.67;;;;;;;6.70;96.71;96367.31;5111191;28;20435;-53
2022/11/14 03:06:15;;;;;;;0.60;0.40;;;;;;;7.07;92.42;96370.75;5111378;28;20840;-53
2022/11/14 03:08:43;;;;;;;1.03;1.03;;;;;;;7.38;89.45;96366.09;5111338;28;20935;-53
2022/11/14 03:11:13;;;;;;;0.50;0.47;;;;;;;7.61;88.66;96374.06;5111363;28;20432;-52
2022/11/14 03:13:41;;;;;;;0.53;0.53;;;;;;;7.46;88.46;96365.75;5111724;28;20818;-52
2022/11/14 03:16:12;;;;;;;2.03;1.93;;;;;;;6.81;92.95;96359.50;5113268;28;20938;-52
2022/11/14 03:18:40;;;;;;;1.47;1.13;;;;;;;6.57;99.13;96359.56;5115419;27;20423;-52
2022/11/14 03:21:10;;;;;;;2.20;2.10;;;;;;;6.50;100.00;96357.00;5115090;28;20916;-53
2022/11/14 03:23:38;;;;;;;1.00;1.00;;;;;;;6.94;98.38;96359.34;5115491;28;20420;-52
2022/11/14 03:26:09;;;;;;;0.70;0.70;;;;;;;6.70;94.42;96349.69;5115111;28;20510;-52
2022/11/14 03:28:39;;;;;;;0.40;0.40;;;;;;;7.13;93.09;96349.59;5115141;28;20427;-52
2022/11/14 03:31:10;;;;;;;6.53;0.33;;;;;;;7.33;89.94;96354.59;5115334;28;20833;-52
2022/11/14 03:33:38;;;;;;;2.20;1.50;;;;;;;6.91;87.67;96259.63;5115203;28;20424;-53
2022/11/14 03:36:08;;;;;;;0.67;0.67;;;;;;;7.62;85.92;96346.66;5115196;28;20455;-53
2022/11/14 03:38:36;;;;;;;0.50;0.50;;;;;;;7.45;85.94;96345.72;5114866;28;20428;-53
2022/11/14 03:41:05;;;;;;;0.43;0.40;;;;;;;7.54;85.79;96339.06;5115168;28;20889;-53
2022/11/14 03:43:34;;;;;;;1.40;1.30;;;;;;;7.37;85.62;96338.09;5114777;28;20817;-53
2022/11/14 03:46:04;;;;;;;1.47;1.37;;;;;;;6.99;87.03;96305.97;5114712;28;20468;-53
2022/11/14 03:48:32;;;;;;;0.70;0.70;;;;;;;7.27;86.90;96335.19;5114662;28;20436;-53
2022/11/14 03:51:00;;;;;;;1.37;1.20;;;;;;;7.33;86.10;96346.69;5114887;28;20428;-53
2022/11/14 03:53:29;;;;;;;0.77;0.77;;;;;;;6.29;91.80;96346.88;5114598;28;20959;-53
2022/11/14 03:55:57;;;;;;;1.07;0.83;;;;;;;5.86;99.31;96343.41;5114770;28;20775;-52
2022/11/14 03:58:25;;;;;;;0.80;0.80;;;;;;;5.90;98.94;96341.94;5114242;28;20430;-52
2022/11/14 04:00:55;;;;;;;0.83;0.80;;;;;;;5.49;99.41;96332.69;5114498;27;20428;-52
2022/11/14 04:03:25;;;;;;;0.53;0.53;;;;;;;5.27;97.75;96297.25;5114700;28;21094;-53
2022/11/14 04:05:53;;;;;;;0.90;0.90;;;;;;;5.36;97.85;96338.06;5114213;28;20428;-53
2022/11/14 04:08:22;;;;;;;0.77;0.60;;;;;;;5.55;96.98;96331.84;5114323;27;20436;-53
2022/11/14 04:10:50;;;;;;;0.40;0.30;;;;;;;5.64;94.52;96350.81;5114292;28;20428;-53
2022/11/14 04:13:18;;;;;;;0.60;0.50;;;;;;;6.02;89.08;96348.13;5114205;28;20428;-52
2022/11/14 04:15:46;;;;;;;0.77;0.77;;;;;;;5.93;86.41;96352.03;5114452;28;20434;-52
2022/11/14 04:18:15;;;;;;;11.63;0.50;;;;;;;5.91;86.65;96352.25;5114157;28;20416;-52
2022/11/14 04:20:44;;;;;;;0.73;0.73;;;;;;;5.79;86.68;96348.69;5113964;28;20428;-52
2022/11/14 04:23:13;;;;;;;0.50;0.50;;;;;;;5.84;85.89;96348.84;5114054;28;20431;-52
2022/11/14 04:25:43;;;;;;;3.50;0.43;;;;;;;5.85;85.55;96341.78;5113901;28;20427;-52
2022/11/14 04:28:11;;;;;;;4.00;1.23;;;;;;;5.91;84.97;96347.00;5113487;28;20470;-52
2022/11/14 04:30:39;;;;;;;0.63;0.60;;;;;;;5.98;84.57;96346.94;5113737;28;20442;-52
2022/11/14 04:33:08;;;;;;;0.70;0.67;;;;;;;5.96;83.82;96346.34;5113850;28;20782;-52
2022/11/14 04:35:36;;;;;;;0.40;0.30;;;;;;;6.16;83.21;96345.16;5114043;28;20435;-52
2022/11/14 04:38:06;;;;;;;0.80;0.80;;;;;;;5.83;82.54;96275.38;5113723;28;20423;-52
2022/11/14 04:40:34;;;;;;;0.80;0.80;;;;;;;6.62;81.13;96357.06;5113794;28;20523;-52
2022/11/14 04:43:03;;;;;;;3.93;0.70;;;;;;;6.69;80.96;96355.97;5113170;27;20420;-52
2022/11/14 04:45:31;;;;;;;1.80;0.80;;;;;;;6.47;81.14;96354.81;5113807;28;20436;-52
2022/11/14 04:47:59;;;;;;;0.63;0.63;;;;;;;6.46;81.52;96365.53;5113719;28;20468;-52
2022/11/14 04:50:27;;;;;;;1.53;1.43;;;;;;;6.36;81.69;96358.13;5112901;28;20583;-52
2022/11/14 04:52:56;;;;;;;1.50;1.50;;;;;;;6.53;82.11;96351.28;5113441;28;20432;-53
2022/11/14 04:55:25;;;;;;;0.70;0.70;;;;;;;6.55;81.27;96353.72;5113536;28;20430;-53
2022/11/14 04:57:55;;;;;;;0.87;0.87;;;;;;;6.36;83.01;96361.59;5113410;28;20420;-53
2022/11/14 05:00:24;;;;;;;1.07;1.03;;;;;;;6.06;84.69;96362.47;5113649;28;20450;-53
2022/11/14 05:02:52;;;;;;;0.90;0.90;;;;;;;5.36;86.37;96359.09;5113174;28;20450;-52
2022/11/14 05:05:20;;;;;;;6.13;1.13;;;;;;;5.25;88.88;96353.66;5113247;28;20947;-53
2022/11/14 05:07:49;;;;;;;0.90;0.90;;;;;;;5.51;88.30;96351.72;5113168;28;20467;-54
2022/11/14 05:10:17;;;;;;;0.63;0.63;;;;;;;5.65;87.57;96355.03;5113374;28;20431;-54
2022/11/14 05:12:47;;;;;;;1.83;1.73;;;;;;;5.45;88.01;96359.63;5113284;28;20424;-53
2022/11/14 05:15:15;;;;;;;0.50;0.50;;;;;;;5.18;90.14;96363.41;5113171;28;20419;-53
2022/11/14 05:17:44;;;;;;;1.63;1.00;;;;;;;5.26;90.54;96358.75;5112948;28;20963;-53
2022/11/14 05:20:12;;;;;;;0.87;0.87;;;;;;;5.42;89.39;96358.22;5112688;27;20428;-53
2022/11/14 05:22:41;;;;;;;0.80;0.80;;;;;;;5.54;87.26;96361.00;5112850;28;20428;-53
2022/11/14 05:25:10;;;;;;;1.47;1.47;;;;;;;5.20;88.65;96359.56;5112858;27;20417;-54
2022/11/14 05:27:38;;;;;;;2.83;2.57;;;;;;;5.54;86.68;96355.75;5111614;28;20497;-53
2022/11/14 05:30:10;;;;;;;1.10;0.90;;;;;;;5.83;85.02;96363.00;5112041;28;20431;-54
2022/11/14 05:32:38;;;;;;;1.60;1.57;;;;;;;6.03;84.55;96358.44;5112480;28;20468;-53
2022/11/14 05:35:08;;;;;;;0.50;0.43;;;;;;;6.22;82.67;96360.06;5112316;28;20427;-53
2022/11/14 05:37:36;;;;;;;1.20;1.07;;;;;;;6.42;82.14;96351.19;5112016;28;20428;-53
2022/11/14 05:40:05;;;;;;;0.43;0.43;;;;;;;6.49;82.78;96355.38;5111826;28;20816;-52
2022/11/14 05:42:34;;;;;;;1.00;1.00;;;;;;;6.32;83.71;96351.72;5112384;28;20793;-52
2022/11/14 05:45:02;;;;;;;0.70;0.60;;;;;;;6.78;83.41;96349.38;5112633;28;20416;-53
2022/11/14 05:47:32;;;;;;;3.37;1.83;;;;;;;7.12;81.31;96355.88;5112012;28;20467;-52
2022/11/14 05:50:00;;;;;;;4.10;1.80;;;;;;;7.35;80.08;96355.19;5112221;28;20424;-52
2022/11/14 05:52:28;;;;;;;1.23;1.23;;;;;;;7.16;80.81;96346.50;5112283;28;20908;-52
2022/11/14 05:54:56;;;;;;;2.57;1.67;;;;;;;7.03;81.62;96349.31;5112590;28;20431;-52
2022/11/14 05:57:25;;;;;;;2.20;1.80;;;;;;;7.12;82.08;96355.06;5112175;28;20428;-52
2022/11/14 05:59:53;;;;;;;15.83;1.93;;;;;;;7.19;82.63;96351.31;5112291;28;20887;-52
2022/11/14 06:02:21;;;;;;;5.17;2.83;;;;;;;6.93;82.38;96325.31;5112359;28;20423;-52
2022/11/14 06:04:51;;;;;;;3.33;3.03;;;;;;;7.08;83.49;96349.47;5112488;27;20470;-53
2022/11/14 06:07:19;;;;;;;11.90;4.50;;;;;;;7.14;83.04;96353.81;5112487;28;20475;-53
2022/11/14 06:09:47;;;;;;;2.43;2.10;;;;;;;7.13;83.08;96354.06;5112252;28;20462;-53
2022/11/14 06:12:18;;;;;;;2.30;1.90;;;;;;;7.69;79.61;96357.13;5112387;28;20473;-53
2022/11/14 06:14:46;;;;;;;8.60;2.00;;;;;;;8.03;76.85;96358.22;5112024;28;20439;-52
2022/11/14 06:17:14;;;;;;;0.97;0.97;;;;;;;8.05;74.53;96362.25;5112367;28;20420;-52
2022/11/14 06:19:42;;;;;;;1.37;0.70;;;;;;;8.07;72.99;96352.25;5111810;28;20432;-52
2022/11/14 06:22:12;;;;;;;1.13;0.90;;;;;;;8.21;71.91;96360.78;5111940;28;20420;-52
2022/11/14 06:24:40;;;;;;;1.73;1.30;;;;;;;8.03;72.02;96352.94;5111186;28;20432;-52
2022/11/14 06:27:08;;;;;;;0.80;0.60;;;;;;;8.05;71.45;96351.69;5110632;28;20467;-53
2022/11/14 06:29:37;;;;;;;0.77;0.60;;;;;;;8.16;71.63;96360.66;5111874;28;20424;-53
2022/11/14 06:32:05;;;;;;;0.60;0.60;;;;;;;8.02;71.64;96361.91;5112228;28;20463;-52
2022/11/14 06:34:33;;;;;;;0.60;0.57;;;;;;;7.87;72.71;96364.97;5111931;28;20423;-52
2022/11/14 06:37:01;;;;;;;1.23;1.17;;;;;;;7.47;72.65;96338.38;5111769;28;20439;-53
2022/11/14 06:39:31;;;;;;;1.10;1.00;;;;;;;7.69;73.32;96363.19;5111944;28;20424;-53
2022/11/14 06:41:59;;;;;;;0.80;0.80;;;;;;;7.86;73.15;96359.94;5111811;28;20431;-53
2022/11/14 06:44:27;;;;;;;1.33;1.10;;;;;;;8.11;72.90;96356.06;5111834;28;20416;-53
2022/11/14 06:46:58;;;;;;;0.50;0.50;;;;;;;8.92;69.45;96348.13;5111403;28;20431;-53
2022/11/14 06:49:26;;;;;;;1.00;1.00;;;;;;;8.59;69.59;96352.44;5109955;28;20822;-53
2022/11/14 06:51:55;;;;;;;0.60;0.60;;;;;;;8.26;70.61;96358.25;5113632;28;20522;-53
2022/11/14 06:54:23;;;;;;;1.37;1.20;;;;;;;7.49;72.78;96357.41;5114998;28;20420;-53
2022/11/14 06:56:52;;;;;;;1.90;1.80;;;;;;;7.30;74.48;96352.41;5115051;28;20420;-53
2022/11/14 06:59:21;;;;;;;2.80;2.70;;;;;;;7.01;75.68;96351.34;5115195;28;20423;-53
2022/11/14 07:01:49;;;;;;;1.10;1.10;;;;;;;7.75;74.69;96345.66;5114892;27;20427;-53
2022/11/14 07:04:17;;;;;;;0.97;0.97;;;;;;;8.28;72.83;96350.94;5115993;28;20432;-53
2022/11/14 07:06:46;;;;;;;0.67;0.63;;;;;;;8.65;72.24;96352.28;5115594;28;20420;-53
2022/11/14 07:09:14;;;;;;;1.20;1.17;;;;;;;7.40;73.19;96299.94;5115997;28;20475;-53
2022/11/14 07:11:45;;;;;;;0.60;0.50;;;;;;;8.08;74.06;96355.72;5115580;28;20436;-53
2022/11/14 07:14:15;;;;;;;1.27;1.17;;;;;;;8.16;73.17;96336.91;5115390;28;20432;-53
2022/11/14 07:16:43;;;;;;;1.20;1.10;;;;;;;8.43;72.41;96343.34;5115470;28;20919;-53
2022/11/14 07:19:12;;;;;;;0.90;0.70;;;;;;;8.98;71.29;96356.94;5115464;28;20424;-53
2022/11/14 07:21:40;;;;;;;1.50;1.40;;;;;;;8.99;69.98;96342.72;5115189;28;20424;-53
2022/11/14 07:24:08;;;;;;;1.77;1.77;;;;;;;8.84;70.72;96337.91;5115028;28;20428;-53
2022/11/14 07:26:36;;;;;;;2.40;2.30;;;;;;;9.18;70.94;96320.34;5115480;28;20464;-53
2022/11/14 07:29:05;;;;;;;0.50;0.50;;;;;;;9.31;70.75;96335.16;5114996;28;20845;-52
2022/11/14 07:31:34;;;;;;;2.90;2.70;;;;;;;9.73;69.39;96331.16;5115181;28;20439;-53
2022/11/14 07:34:04;;;;;;;1.63;1.53;;;;;;;9.90;68.92;96321.38;5114782;27;20425;-53
2022/11/14 07:36:33;;;;;;;3.17;3.07;;;;;;;10.35;68.08;96320.50;5115188;28;20431;-53
2022/11/14 07:39:01;;;;;;;2.40;2.30;;;;;;;11.33;65.92;96302.63;5115179;28;20431;-55
2022/11/14 07:41:29;;;;;;;2.43;2.33;;;;;;;12.12;63.06;96321.47;5115082;27;20905;-55
2022/11/14 07:43:57;;;;;;;1.80;1.70;;;;;;;12.47;59.35;96320.94;5114968;28;20415;-55
2022/11/14 07:46:26;;;;;;;1.73;1.60;;;;;;;12.35;59.40;96310.47;5114708;28;20429;-56
2022/11/14 07:48:55;;;;;;;1.70;1.60;;;;;;;12.53;59.12;96318.03;5114563;28;20994;-57
2022/11/14 07:51:24;;;;;;;1.67;1.57;;;;;;;13.03;58.77;96314.06;5114748;28;20429;-58
2022/11/14 07:53:53;;;;;;;1.40;1.30;;;;;;;13.32;57.98;96299.28;5114744;28;20457;-58
2022/11/14 07:56:22;;;;;;;1.27;1.27;;;;;;;13.46;57.63;96303.03;5114628;28;20897;-57
2022/11/14 07:58:51;;;;;;;0.60;0.60;;;;;;;13.67;58.75;96298.53;5114633;28;20520;-56
2022/11/14 08:01:19;;;;;;;1.83;1.73;;;;;;;14.25;56.23;96291.91;5114406;28;20433;-55
2022/11/14 08:03:47;;;;;;;0.93;0.93;;;;;;;14.17;55.15;96287.91;5114783;28;20796;-54
2022/11/14 08:06:17;;;;;;;2.40;2.20;;;;;;;14.31;55.03;96285.53;5114767;28;20421;-55
2022/11/14 08:08:45;;;;;;;1.77;1.67;;;;;;;15.16;53.70;96279.13;5114080;28;20467;-55
2022/11/14 08:11:14;;;;;;;1.13;1.03;;;;;;;15.50;54.31;96276.59;5114357;28;20530;-54
2022/11/14 08:14:02;;;;;;;6.03;1.87;;;;;;;16.01;51.03;96285.06;5114327;28;20435;-54
2022/11/14 08:16:30;;;;;;;5.87;2.00;;;;;;;16.41;50.66;96279.34;5114225;28;20427;-53
2022/11/14 08:18:58;;;;;;;2.53;1.33;;;;;;;16.76;49.74;96275.53;5113996;28;20432;-54
2022/11/14 08:21:28;;;;;;;3.80;2.63;;;;;;;16.66;49.50;96267.63;5114425;28;20420;-54
2022/11/14 08:23:56;;;;;;;3.00;2.80;;;;;;;16.62;49.02;96274.63;5114303;28;20428;-52
2022/11/14 08:26:24;;;;;;;3.87;3.57;;;;;;;17.09;50.22;96264.72;5113237;28;20473;-53
2022/11/14 08:28:59;;;;;;;16.27;4.20;;;;;;;18.11;48.83;96261.41;5114015;28;20478;-52
2022/11/14 08:31:28;;;;;;;3.80;3.33;;;;;;;18.46;47.97;96263.47;5114186;28;20470;-51
2022/11/14 08:33:56;;;;;;;2.37;2.27;;;;;;;19.49;45.92;96262.00;5113840;28;20424;-51
2022/11/14 08:36:24;;;;;;;1.30;1.20;;;;;;;19.54;44.12;96251.16;5113681;28;20431;-51
2022/11/14 08:38:54;;;;;;;0.77;0.77;;;;;;;18.93;46.10;96251.59;5113715;28;20447;-51
2022/11/14 08:41:29;;;;;;;2.17;1.50;;;;;;;19.24;44.78;96254.47;5113735;28;20801;-51
2022/11/14 08:43:57;;;;;;;1.20;0.80;;;;;;;20.02;41.87;96254.88;5113484;28;20428;-51
2022/11/14 08:46:25;;;;;;;0.97;0.97;;;;;;;20.42;40.67;96252.28;5113588;28;20420;-51
2022/11/14 08:48:53;;;;;;;0.93;0.80;;;;;;;21.12;39.34;96239.63;5113739;28;20463;-51
2022/11/14 08:51:22;;;;;;;1.40;0.70;;;;;;;20.99;40.25;96239.72;5113452;28;20432;-51
2022/11/14 08:53:51;;;;;;;1.33;0.80;;;;;;;20.06;40.15;96237.00;5113666;28;20434;-51
2022/11/14 08:56:20;;;;;;;1.23;1.10;;;;;;;19.98;41.06;96239.63;5113464;28;20518;-51
2022/11/14 08:58:49;;;;;;;0.70;0.60;;;;;;;20.08;40.91;96226.72;5113434;28;20431;-52
2022/11/14 09:01:17;;;;;;;0.70;0.70;;;;;;;18.84;44.47;96226.53;5113242;28;20426;-52
2022/11/14 09:03:45;;;;;;;0.90;0.90;;;;;;;20.63;41.14;96223.72;5113316;27;20521;-52
2022/11/14 09:06:14;;;;;;;3.00;2.70;;;;;;;20.92;41.31;96220.50;5113430;28;20463;-52
2022/11/14 09:08:42;;;;;;;2.83;0.70;;;;;;;21.11;39.11;96194.91;5113179;27;20432;-51
2022/11/14 09:11:10;;;;;;;1.10;1.00;;;;;;;21.05;38.09;96209.59;5113262;28;20782;-52
2022/11/14 09:13:46;;;;;;;13.80;0.93;;;;;;;21.70;39.14;96169.06;5112606;28;20419;-52
2022/11/14 09:16:14;;;;;;;1.23;1.13;;;;;;;21.85;39.35;96210.97;5113139;28;20864;-52
2022/11/14 09:18:42;;;;;;;1.20;1.20;;;;;;;20.75;38.69;96205.84;5112984;27;20971;-52
2022/11/14 09:21:11;;;;;;;2.20;2.10;;;;;;;21.04;39.74;96201.81;5113290;28;20432;-52
2022/11/14 09:23:40;;;;;;;1.23;1.13;;;;;;;21.39;38.19;96192.72;5112963;28;20424;-52
2022/11/14 09:26:09;;;;;;;12.93;1.43;;;;;;;21.47;38.92;96206.22;5112925;28;20921;-52
2022/11/14 09:28:38;;;;;;;2.00;1.90;;;;;;;21.95;39.06;96187.19;5113212;28;20431;-52
2022/11/14 09:31:11;;;;;;;1.57;1.53;;;;;;;22.44;38.86;96179.59;5112967;28;20471;-53
2022/11/14 09:33:39;;;;;;;1.70;1.60;;;;;;;22.06;37.49;96172.22;5112637;28;20432;-53
2022/11/14 09:36:11;;;;;;;1.20;0.80;;;;;;;22.08;36.70;96167.31;5112674;28;20894;-53
2022/11/14 09:38:39;;;;;;;1.80;1.47;;;;;;;21.88;37.22;96162.56;5112996;28;20420;-51
2022/11/14 09:41:23;;;;;;;0.90;0.70;;;;;;;22.13;37.10;96160.94;5112895;28;20523;-51
2022/11/14 09:44:30;;;;;;;1.70;1.60;;;;;;;22.49;36.62;96142.34;5112529;28;20510;-52
2022/11/14 09:47:02;;;;;;;1.03;0.80;;;;;;;22.80;36.35;96141.28;5099411;28;20457;-52
2022/11/14 09:49:36;;;;;;;8.40;1.50;;;;;;;23.17;36.42;96146.59;5112216;28;20475;-52
2022/11/14 09:52:15;;;;;;;2.37;1.80;;;;;;;22.48;36.49;96126.47;5112617;28;20424;-53
2022/11/14 09:54:48;;;;;;;3.40;1.13;;;;;;;22.91;36.75;96134.41;5112511;28;20431;-53
2022/11/14 09:57:20;;;;;;;0.57;0.57;;;;;;;23.12;35.97;96129.81;5112343;28;20808;-53
2022/11/14 09:59:49;;;;;;;3.23;1.03;;;;;;;23.83;35.19;96123.16;5112567;28;20459;-53
2022/11/14 10:02:33;;;;;;;1.03;1.03;;;;;;;22.57;36.21;96119.13;5112145;28;20435;-53
2022/11/14 10:05:17;;;;;;;1.00;1.00;;;;;;;23.09;36.09;96125.06;5112233;28;20916;-53
2022/11/14 10:08:00;;;;;;;2.60;1.00;;;;;;;24.36;34.38;96114.16;5112181;28;20420;-53
2022/11/14 10:10:45;;;;;;;1.67;1.57;;;;;;;23.69;35.25;96111.84;5112200;28;21056;-53
2022/11/14 10:13:25;;;;;;;1.47;1.37;;;;;;;23.66;35.85;96100.88;5112018;28;20919;-54
2022/11/14 10:16:00;;;;;;;1.83;1.47;;;;;;;23.95;35.58;96103.47;5111949;28;20971;-53
2022/11/14 10:18:43;;;;;;;1.73;0.70;;;;;;;24.76;34.95;96098.03;5111930;28;20427;-54
2022/11/14 10:21:27;;;;;;;1.43;1.33;;;;;;;22.68;36.95;96090.66;5111906;28;20415;-53
2022/11/14 10:24:02;;;;;;;4.00;1.40;;;;;;;23.59;36.43;96089.81;5112019;28;20469;-54
2022/11/14 10:26:36;;;;;;;0.63;0.63;;;;;;;23.54;37.46;96087.31;5111919;28;20489;-54
2022/11/14 10:29:27;;;;;;;1.50;1.40;;;;;;;23.76;35.68;96078.81;5111910;28;20958;-54
2022/11/14 10:32:05;;;;;;;1.00;1.00;;;;;;;24.79;35.06;96072.97;5111961;28;20904;-53
2022/11/14 10:34:40;;;;;;;1.20;1.20;;;;;;;24.15;37.02;96062.00;5112115;28;20424;-53
2022/11/14 10:37:19;;;;;;;0.77;0.77;;;;;;;24.50;34.89;96056.94;5112258;28;20509;-54
2022/11/14 10:39:51;;;;;;;2.93;0.93;;;;;;;25.43;36.11;96053.09;5112105;28;20793;-54
2022/11/14 10:42:25;;;;;;;0.60;0.50;;;;;;;25.13;34.41;96041.81;5111783;28;20424;-54
2022/11/14 10:45:02;;;;;;;0.70;0.70;;;;;;;26.16;33.37;96043.47;5111840;28;20431;-54
2022/11/14 10:47:39;;;;;;;0.70;0.70;;;;;;;26.27;32.56;96043.75;5112057;28;20875;-53
2022/11/14 10:50:18;;;;;;;0.70;0.70;;;;;;;26.14;33.87;96040.31;5111873;28;20482;-53
2022/11/14 10:52:48;;;;;;;2.13;0.87;;;;;;;25.95;32.77;96037.50;5111974;28;20428;-54
2022/11/14 10:55:20;;;;;;;0.53;0.50;;;;;;;25.81;33.09;96031.69;5111993;28;20430;-54
2022/11/14 10:58:10;;;;;;;1.00;0.90;;;;;;;25.55;32.75;96020.53;5111319;28;20956;-54
2022/11/14 11:00:39;;;;;;;1.00;0.90;;;;;;;25.02;33.35;96030.66;5111747;28;20439;-54
2022/11/14 11:03:08;;;;;;;1.00;0.40;;;;;;;25.95;33.29;96021.19;5111538;28;20424;-54
2022/11/14 11:05:47;;;;;;;0.70;0.60;;;;;;;26.42;32.85;96008.38;5109803;28;20439;-54
2022/11/14 11:11:31;;;;;;;0.63;0.50;;;;;;;26.03;32.74;96006.66;5110403;28;20463;-54
2022/11/14 11:14:01;;;;;;;3.73;0.70;;;;;;;26.09;31.65;96007.16;5111334;28;20436;-54
2022/11/14 11:16:29;;;;;;;1.00;0.97;;;;;;;26.75;32.45;95999.81;5111571;28;20452;-54
2022/11/14 11:19:15;;;;;;;1.20;1.20;;;;;;;26.51;32.69;95996.53;5110510;28;20428;-54
2022/11/14 11:21:52;;;;;;;1.57;0.50;;;;;;;27.91;30.00;95995.09;5110961;28;20434;-55
2022/11/14 11:24:31;;;;;;;1.63;0.50;;;;;;;28.58;28.68;95988.81;5111399;28;20427;-52
2022/11/14 11:27:22;;;;;;;0.67;0.60;;;;;;;29.05;28.14;95982.03;5110242;28;20471;-53
2022/11/14 11:30:17;;;;;;;0.67;0.67;;;;;;;26.75;31.10;95988.91;5111371;28;20432;-53
2022/11/14 11:32:46;;;;;;;1.50;1.40;;;;;;;26.85;32.50;95988.38;5111213;28;20613;-53
2022/11/14 11:35:16;;;;;;;0.80;0.60;;;;;;;26.99;30.72;95979.75;5111211;28;20435;-53
2022/11/14 11:37:53;;;;;;;0.83;0.83;;;;;;;27.14;30.72;95981.59;5113787;28;20430;-53
2022/11/14 11:40:25;;;;;;;1.47;0.97;;;;;;;27.77;29.43;95973.06;5114905;28;20950;-53
2022/11/14 11:42:58;;;;;;;6.43;0.77;;;;;;;27.60;29.29;95977.84;5114793;28;20416;-53
2022/11/14 11:45:51;;;;;;;0.70;0.60;;;;;;;27.54;30.73;95971.13;5114565;28;20873;-52
2022/11/14 11:48:21;;;;;;;0.50;0.50;;;;;;;26.29;31.40;95970.78;5114642;28;20430;-52
2022/11/14 11:50:50;;;;;;;0.77;0.40;;;;;;;27.03;30.44;95950.66;5113867;28;20501;-54
2022/11/14 11:53:25;;;;;;;1.00;0.60;;;;;;;27.49;28.66;95943.41;5114620;28;20424;-53
2022/11/14 11:55:59;;;;;;;0.50;0.50;;;;;;;27.73;29.22;95960.16;5114676;28;20427;-53
2022/11/14 11:58:32;;;;;;;0.50;0.50;;;;;;;27.40;28.85;95962.69;5114438;28;20430;-52